Time;durP1;ratioP1;P1;durP2;ratioP2;P2;SDS_P1;SDS_P2;PMS_P1;PMS_P2;Temp;Humidity;BMP_temperature;BMP_pressure;BME280_temperature;BME280_humidity;BME280_pressure;Samples;Min_cycle;Max_cycle;Signal;HPM_P1;HPM_P2
2022/09/18 00:00:47;;;;;;;1.80;0.10;;;10.00;99.90;;;;;;5041158;28;20048;-74
2022/09/18 00:03:14;;;;;;;3.95;0.40;;;10.00;99.90;;;;;;5042721;28;20037;-73
2022/09/18 00:05:40;;;;;;;2.83;0.22;;;10.00;99.90;;;;;;5041059;28;20037;-74
2022/09/18 00:08:07;;;;;;;0.10;0.10;;;10.00;99.90;;;;;;5042110;28;20099;-74
2022/09/18 00:10:38;;;;;;;2.17;0.40;;;10.00;99.90;;;;;;5042437;28;20029;-74
2022/09/18 00:13:04;;;;;;;0.98;0.20;;;10.10;99.90;;;;;;5041908;28;20041;-74
2022/09/18 00:15:30;;;;;;;4.35;0.50;;;10.00;99.90;;;;;;5004124;28;20498;-74
2022/09/18 00:17:56;;;;;;;0.55;0.15;;;10.00;99.90;;;;;;5041302;28;20056;-74
2022/09/18 00:20:22;;;;;;;0.93;0.30;;;9.90;99.90;;;;;;5022574;28;20123;-73
2022/09/18 00:22:47;;;;;;;6.85;0.50;;;9.90;99.90;;;;;;5041573;28;20402;-73
2022/09/18 00:25:13;;;;;;;0.00;0.00;;;9.90;99.90;;;;;;5025137;28;20040;-74
2022/09/18 00:27:38;;;;;;;2.95;0.55;;;9.90;99.90;;;;;;5041356;28;20520;-74
2022/09/18 00:30:04;;;;;;;0.47;0.13;;;9.90;99.90;;;;;;5041378;28;20049;-74
2022/09/18 00:32:30;;;;;;;2.63;0.32;;;9.90;99.90;;;;;;5042974;28;20033;-74
2022/09/18 00:34:55;;;;;;;1.67;0.77;;;9.90;99.90;;;;;;5040795;28;20037;-73
2022/09/18 00:37:21;;;;;;;0.70;0.10;;;9.90;99.90;;;;;;5040387;28;20494;-73
2022/09/18 00:39:46;;;;;;;7.20;0.43;;;9.90;99.90;;;;;;5024524;28;20048;-73
2022/09/18 00:42:12;;;;;;;0.73;0.20;;;9.90;99.90;;;;;;5041650;28;20086;-73
2022/09/18 00:44:45;;;;;;;0.63;0.35;;;9.90;99.90;;;;;;5041275;28;20029;-73
2022/09/18 00:47:10;;;;;;;7.57;0.73;;;10.00;99.90;;;;;;5040971;28;20116;-73
2022/09/18 00:49:59;;;;;;;1.98;0.20;;;10.00;99.90;;;;;;5040431;28;20530;-74
2022/09/18 00:52:37;;;;;;;0.60;0.10;;;10.00;99.90;;;;;;5038116;28;20056;-73
2022/09/18 00:55:10;;;;;;;2.45;0.77;;;10.00;99.90;;;;;;5041069;28;20041;-73
2022/09/18 00:57:45;;;;;;;3.53;0.43;;;10.10;99.90;;;;;;5040659;28;20463;-73
2022/09/18 01:00:11;;;;;;;0.82;0.25;;;10.10;99.90;;;;;;5018798;28;20487;-73
2022/09/18 01:02:40;;;;;;;0.00;0.00;;;10.10;99.90;;;;;;5039982;28;20036;-73
2022/09/18 01:05:07;;;;;;;0.75;0.30;;;10.10;99.90;;;;;;5039816;28;20049;-74
2022/09/18 01:07:47;;;;;;;1.27;0.25;;;10.10;99.90;;;;;;5005521;28;20063;-73
2022/09/18 01:10:34;;;;;;;0.95;0.30;;;10.10;99.90;;;;;;5022641;28;20044;-73
2022/09/18 01:13:38;;;;;;;4.68;0.20;;;10.00;99.90;;;;;;5040175;28;20037;-73
2022/09/18 01:16:26;;;;;;;2.58;0.30;;;10.00;99.90;;;;;;5038374;28;20441;-73
2022/09/18 01:18:58;;;;;;;1.15;0.47;;;10.00;99.90;;;;;;5041509;28;20049;-73
2022/09/18 01:22:07;;;;;;;1.95;0.30;;;10.00;99.90;;;;;;5038669;28;20468;-73
2022/09/18 01:25:07;;;;;;;0.35;0.10;;;10.00;99.90;;;;;;5031334;28;20052;-73
2022/09/18 01:27:44;;;;;;;2.05;0.20;;;10.10;99.90;;;;;;5031351;28;20092;-73
2022/09/18 01:30:11;;;;;;;5.20;0.60;;;10.10;99.90;;;;;;5037336;28;20037;-74
2022/09/18 01:32:43;;;;;;;4.47;0.30;;;10.10;99.90;;;;;;5040791;28;20044;-74
2022/09/18 01:35:35;;;;;;;0.52;0.25;;;10.10;99.90;;;;;;5040226;28;20045;-74
2022/09/18 01:38:12;;;;;;;2.38;0.32;;;10.10;99.90;;;;;;5037419;28;20036;-74
2022/09/18 01:40:45;;;;;;;0.08;0.00;;;10.10;99.90;;;;;;5037544;28;20032;-74
2022/09/18 01:43:15;;;;;;;1.00;0.38;;;10.20;99.90;;;;;;5040731;28;20136;-74
2022/09/18 01:45:45;;;;;;;1.00;0.20;;;10.10;99.90;;;;;;5038136;28;20037;-74
2022/09/18 01:48:23;;;;;;;0.80;0.25;;;10.10;99.90;;;;;;5012595;28;20082;-74
2022/09/18 01:50:54;;;;;;;0.75;0.20;;;10.10;99.90;;;;;;5040566;28;20554;-74
2022/09/18 01:53:42;;;;;;;4.70;0.43;;;10.20;99.90;;;;;;5050163;28;20040;-74
2022/09/18 01:56:14;;;;;;;0.05;0.05;;;10.20;99.90;;;;;;5049770;28;20075;-73
2022/09/18 01:58:40;;;;;;;2.92;0.35;;;10.20;99.90;;;;;;5050878;28;20045;-73
2022/09/18 02:01:14;;;;;;;2.30;0.20;;;10.10;99.90;;;;;;5051125;28;20041;-74
2022/09/18 02:03:49;;;;;;;4.68;0.43;;;10.10;99.90;;;;;;5049299;28;20032;-74
2022/09/18 02:06:28;;;;;;;1.17;0.22;;;10.10;99.90;;;;;;5049833;28;20079;-74
2022/09/18 02:08:55;;;;;;;0.55;0.20;;;10.10;99.90;;;;;;5050644;28;20048;-74
2022/09/18 02:11:21;;;;;;;1.08;0.55;;;10.20;99.90;;;;;;5051091;28;20037;-74
2022/09/18 02:14:09;;;;;;;1.52;0.25;;;10.10;99.90;;;;;;5051246;28;20395;-74
2022/09/18 02:16:46;;;;;;;2.53;0.35;;;10.10;99.90;;;;;;5050240;28;20062;-74
2022/09/18 02:19:17;;;;;;;1.50;0.40;;;10.10;99.90;;;;;;5050138;28;20079;-74
2022/09/18 02:21:45;;;;;;;0.40;0.20;;;10.10;99.90;;;;;;5048130;28;20048;-74
2022/09/18 02:24:15;;;;;;;0.80;0.38;;;10.10;99.90;;;;;;5050559;28;20107;-74
2022/09/18 02:26:41;;;;;;;0.38;0.38;;;10.10;99.90;;;;;;5050142;28;20561;-74
2022/09/18 02:29:11;;;;;;;1.35;0.32;;;10.10;99.90;;;;;;5051033;28;20032;-74
2022/09/18 02:31:38;;;;;;;2.00;0.35;;;10.10;99.90;;;;;;5048363;28;20041;-74
2022/09/18 02:34:05;;;;;;;0.88;0.47;;;10.10;99.90;;;;;;5012201;28;20146;-74
2022/09/18 02:37:11;;;;;;;0.47;0.22;;;10.10;99.90;;;;;;5045042;28;20159;-74
2022/09/18 02:39:43;;;;;;;0.88;0.25;;;10.10;99.90;;;;;;5046722;28;20498;-74
2022/09/18 02:42:27;;;;;;;2.85;0.38;;;10.10;99.90;;;;;;5028594;28;20057;-74
2022/09/18 02:45:21;;;;;;;0.25;0.08;;;10.10;99.90;;;;;;5046156;28;20040;-74
2022/09/18 02:48:24;;;;;;;1.02;0.43;;;10.10;99.90;;;;;;5044096;28;20118;-74
2022/09/18 02:50:57;;;;;;;2.05;0.30;;;10.10;99.90;;;;;;5043862;28;20052;-73
2022/09/18 02:53:50;;;;;;;0.90;0.17;;;10.10;99.90;;;;;;5047853;28;20068;-74
2022/09/18 02:56:43;;;;;;;0.60;0.30;;;10.20;99.90;;;;;;5045219;28;20067;-74
2022/09/18 02:59:21;;;;;;;1.08;0.20;;;10.20;99.90;;;;;;5041921;28;20051;-74
2022/09/18 03:01:48;;;;;;;0.15;0.08;;;10.20;99.90;;;;;;5042654;28;20697;-74
2022/09/18 03:04:18;;;;;;;1.83;0.30;;;10.20;99.90;;;;;;5024009;28;20536;-74
2022/09/18 03:06:44;;;;;;;0.47;0.20;;;10.10;99.90;;;;;;5023725;28;20052;-74
2022/09/18 03:09:09;;;;;;;2.25;0.28;;;10.20;99.90;;;;;;5023513;28;20380;-74
2022/09/18 03:11:36;;;;;;;1.45;0.20;;;10.20;99.90;;;;;;5043397;28;20067;-74
2022/09/18 03:14:02;;;;;;;2.72;0.20;;;10.20;99.90;;;;;;5041517;28;20036;-74
2022/09/18 03:16:27;;;;;;;0.98;0.10;;;10.20;99.90;;;;;;5040768;28;20040;-74
2022/09/18 03:18:53;;;;;;;2.40;0.40;;;10.30;99.90;;;;;;5043647;28;20045;-74
2022/09/18 03:21:19;;;;;;;1.30;0.38;;;10.30;99.90;;;;;;5041402;28;20064;-74
2022/09/18 03:23:45;;;;;;;2.45;0.30;;;10.30;99.90;;;;;;5009102;28;20041;-74
2022/09/18 03:26:11;;;;;;;2.50;0.35;;;10.30;99.90;;;;;;5041230;28;20391;-74
2022/09/18 03:28:36;;;;;;;0.85;0.30;;;10.20;99.90;;;;;;5044331;28;20036;-74
2022/09/18 03:31:02;;;;;;;2.90;0.22;;;10.30;99.90;;;;;;5041423;28;20037;-74
2022/09/18 03:33:28;;;;;;;1.02;0.25;;;10.30;99.90;;;;;;5024103;28;20037;-74
2022/09/18 03:35:53;;;;;;;0.47;0.13;;;10.40;99.90;;;;;;5022625;28;20953;-74
2022/09/18 03:38:19;;;;;;;0.70;0.10;;;10.40;99.90;;;;;;5042717;28;20037;-74
2022/09/18 03:40:45;;;;;;;2.30;0.30;;;10.40;99.90;;;;;;5023953;28;20044;-74
2022/09/18 03:43:10;;;;;;;1.55;0.30;;;10.40;99.90;;;;;;5041794;28;20045;-74
2022/09/18 03:45:36;;;;;;;4.95;0.38;;;10.40;99.90;;;;;;5040502;28;20504;-74
2022/09/18 03:48:02;;;;;;;5.63;0.22;;;10.40;99.90;;;;;;5041363;28;20128;-74
2022/09/18 03:50:28;;;;;;;2.20;0.40;;;10.40;99.90;;;;;;5039770;28;20021;-74
2022/09/18 03:52:54;;;;;;;0.10;0.10;;;10.40;99.90;;;;;;5042490;28;20091;-74
2022/09/18 03:55:21;;;;;;;1.38;0.40;;;10.50;99.90;;;;;;5007063;28;20048;-74
2022/09/18 03:57:47;;;;;;;5.30;0.40;;;10.40;99.90;;;;;;5042262;28;20049;-74
2022/09/18 04:00:14;;;;;;;0.20;0.08;;;10.40;99.90;;;;;;5039459;28;20041;-74
2022/09/18 04:02:40;;;;;;;0.20;0.10;;;10.50;99.90;;;;;;5042797;28;20041;-74
2022/09/18 04:05:06;;;;;;;1.20;0.30;;;10.40;99.90;;;;;;5042474;28;20043;-74
2022/09/18 04:07:32;;;;;;;0.35;0.10;;;10.50;99.90;;;;;;5027490;28;20052;-74
2022/09/18 04:09:57;;;;;;;1.08;0.22;;;10.50;99.90;;;;;;5026973;28;20456;-74
2022/09/18 04:12:23;;;;;;;2.30;0.60;;;10.50;99.90;;;;;;5045540;28;20091;-74
2022/09/18 04:14:49;;;;;;;0.40;0.13;;;10.50;99.90;;;;;;5043109;28;20028;-74
2022/09/18 04:17:14;;;;;;;0.88;0.50;;;10.50;99.90;;;;;;5044081;28;20494;-74
2022/09/18 04:19:40;;;;;;;0.85;0.20;;;10.50;99.90;;;;;;5046071;28;20067;-74
2022/09/18 04:22:06;;;;;;;0.57;0.20;;;10.50;99.90;;;;;;5044929;28;20136;-74
2022/09/18 04:24:34;;;;;;;0.60;0.10;;;10.50;99.90;;;;;;5045645;28;20111;-74
2022/09/18 04:26:59;;;;;;;0.00;0.00;;;10.50;99.90;;;;;;5043945;28;20037;-73
2022/09/18 04:29:25;;;;;;;1.85;0.20;;;10.50;99.90;;;;;;5026563;28;20099;-73
2022/09/18 04:31:50;;;;;;;3.78;0.40;;;10.40;99.90;;;;;;5044666;28;20806;-74
2022/09/18 04:34:16;;;;;;;0.20;0.10;;;10.50;99.90;;;;;;5045929;28;20037;-73
2022/09/18 04:36:42;;;;;;;0.30;0.10;;;10.40;99.90;;;;;;5044078;28;20500;-73
2022/09/18 04:39:07;;;;;;;0.75;0.20;;;10.40;99.90;;;;;;5026527;28;20039;-73
2022/09/18 04:41:33;;;;;;;1.83;0.20;;;10.40;99.90;;;;;;5045294;28;20037;-73
2022/09/18 04:43:59;;;;;;;1.90;0.50;;;10.50;99.90;;;;;;5044685;28;20087;-74
2022/09/18 04:46:24;;;;;;;1.67;0.20;;;10.40;99.90;;;;;;5045619;28;20056;-74
2022/09/18 04:48:50;;;;;;;2.65;0.38;;;10.40;99.90;;;;;;5026640;28;20106;-74
2022/09/18 04:51:16;;;;;;;0.50;0.08;;;10.40;99.90;;;;;;5044470;28;20144;-74
2022/09/18 04:53:41;;;;;;;0.10;0.10;;;10.40;99.90;;;;;;5045363;28;20047;-73
2022/09/18 04:56:07;;;;;;;1.40;0.10;;;10.40;99.90;;;;;;5045597;28;20159;-74
2022/09/18 04:58:33;;;;;;;0.00;0.00;;;10.40;99.90;;;;;;5044471;28;20139;-73
2022/09/18 05:00:58;;;;;;;0.20;0.10;;;10.40;99.90;;;;;;5043943;28;20102;-73
2022/09/18 05:03:24;;;;;;;0.90;0.30;;;10.40;99.90;;;;;;5044945;28;20040;-74
2022/09/18 05:05:50;;;;;;;0.80;0.20;;;10.40;99.90;;;;;;5043758;28;20039;-73
2022/09/18 05:08:16;;;;;;;0.00;0.00;;;10.40;99.90;;;;;;5040775;28;20045;-74
2022/09/18 05:10:42;;;;;;;0.00;0.00;;;10.40;99.90;;;;;;5041342;28;20037;-74
2022/09/18 05:13:08;;;;;;;0.35;0.25;;;10.40;99.90;;;;;;5020777;28;20047;-73
2022/09/18 05:15:34;;;;;;;2.67;0.25;;;10.50;99.90;;;;;;5039734;28;20064;-74
2022/09/18 05:18:07;;;;;;;0.70;0.10;;;10.50;99.90;;;;;;5040889;28;20055;-74
2022/09/18 05:20:34;;;;;;;0.55;0.22;;;10.50;99.90;;;;;;5039848;28;20044;-74
2022/09/18 05:22:59;;;;;;;1.23;0.25;;;10.50;99.90;;;;;;5040611;28;20514;-74
2022/09/18 05:25:27;;;;;;;4.00;0.30;;;10.50;99.90;;;;;;5042062;28;20027;-74
2022/09/18 05:27:53;;;;;;;0.20;0.10;;;10.50;99.90;;;;;;5038709;28;21570;-74
2022/09/18 05:30:19;;;;;;;0.85;0.35;;;10.40;99.90;;;;;;5040082;28;21940;-74
2022/09/18 05:32:59;;;;;;;0.77;0.30;;;10.50;99.90;;;;;;5041319;28;20052;-74
2022/09/18 05:35:27;;;;;;;0.10;0.10;;;10.50;99.90;;;;;;5038873;28;20052;-74
2022/09/18 05:37:53;;;;;;;0.22;0.10;;;10.50;99.90;;;;;;5040698;28;20660;-74
2022/09/18 05:40:22;;;;;;;0.65;0.30;;;10.50;99.90;;;;;;5038790;28;20037;-75
2022/09/18 05:42:48;;;;;;;0.35;0.10;;;10.50;99.90;;;;;;5019717;28;20071;-75
2022/09/18 05:45:15;;;;;;;2.65;0.25;;;10.50;99.90;;;;;;5040163;28;20044;-75
2022/09/18 05:47:40;;;;;;;1.23;0.22;;;10.50;99.90;;;;;;5040153;28;20032;-74
2022/09/18 05:50:07;;;;;;;0.43;0.15;;;10.50;99.90;;;;;;5039568;28;20045;-75
2022/09/18 05:52:33;;;;;;;0.60;0.30;;;10.50;99.90;;;;;;5040629;28;20497;-74
2022/09/18 05:54:59;;;;;;;0.00;0.00;;;10.50;99.90;;;;;;5039197;28;20037;-75
2022/09/18 05:57:24;;;;;;;0.30;0.20;;;10.50;99.90;;;;;;5020343;28;20061;-74
2022/09/18 05:59:50;;;;;;;0.20;0.10;;;10.50;99.90;;;;;;5039368;28;20128;-74
2022/09/18 06:02:16;;;;;;;0.38;0.10;;;10.50;99.90;;;;;;5040076;28;20044;-74
2022/09/18 06:04:41;;;;;;;0.60;0.15;;;10.50;99.90;;;;;;5021704;28;20043;-75
2022/09/18 06:07:07;;;;;;;0.40;0.20;;;10.50;99.90;;;;;;5038507;28;20029;-74
2022/09/18 06:09:32;;;;;;;0.00;0.00;;;10.50;99.90;;;;;;5039977;28;20037;-74
2022/09/18 06:11:58;;;;;;;0.43;0.10;;;10.50;99.90;;;;;;5040543;28;20128;-74
2022/09/18 06:14:24;;;;;;;0.80;0.10;;;10.40;99.90;;;;;;5020213;28;20102;-75
2022/09/18 06:16:49;;;;;;;0.10;0.05;;;10.50;99.90;;;;;;5037995;28;20119;-74
2022/09/18 06:19:15;;;;;;;1.20;0.63;;;10.40;99.90;;;;;;5039541;28;20029;-75
2022/09/18 06:21:41;;;;;;;0.47;0.15;;;10.50;99.90;;;;;;5039923;28;20041;-74
2022/09/18 06:24:08;;;;;;;0.20;0.10;;;10.50;99.90;;;;;;5040372;28;20037;-75
2022/09/18 06:26:34;;;;;;;0.28;0.17;;;10.40;99.90;;;;;;5040848;28;20041;-75
2022/09/18 06:29:00;;;;;;;2.72;0.40;;;10.50;99.90;;;;;;5039246;28;20033;-75
2022/09/18 06:31:25;;;;;;;1.88;0.20;;;10.50;99.90;;;;;;5039328;28;20052;-75
2022/09/18 06:33:51;;;;;;;1.20;0.10;;;10.50;99.90;;;;;;5043243;28;20128;-74
2022/09/18 06:36:16;;;;;;;0.32;0.10;;;10.50;99.90;;;;;;5024976;28;20048;-74
2022/09/18 06:38:42;;;;;;;0.00;0.00;;;10.50;99.90;;;;;;5047357;28;20040;-74
2022/09/18 06:41:08;;;;;;;6.35;0.30;;;10.50;99.90;;;;;;5044000;28;20045;-75
2022/09/18 06:43:34;;;;;;;0.30;0.10;;;10.60;99.90;;;;;;5025669;28;20068;-74
2022/09/18 06:45:59;;;;;;;1.17;0.57;;;10.50;99.90;;;;;;5025846;28;20136;-74
2022/09/18 06:48:28;;;;;;;1.48;0.20;;;10.60;99.90;;;;;;5044560;28;20128;-75
2022/09/18 06:50:55;;;;;;;0.82;0.40;;;10.60;99.90;;;;;;5042563;28;20037;-75
2022/09/18 06:53:21;;;;;;;0.15;0.10;;;10.60;99.90;;;;;;5041926;28;20115;-74
2022/09/18 06:55:47;;;;;;;2.65;0.22;;;10.60;99.90;;;;;;5040616;28;20068;-85
2022/09/18 06:58:18;;;;;;;0.15;0.05;;;10.60;99.90;;;;;;5009058;28;20048;-74
2022/09/18 07:00:44;;;;;;;6.82;0.40;;;10.60;99.90;;;;;;5025921;28;20045;-74
2022/09/18 07:03:10;;;;;;;0.20;0.10;;;10.60;99.90;;;;;;5039738;28;20041;-74
2022/09/18 07:05:45;;;;;;;0.00;0.00;;;10.60;99.90;;;;;;5039794;28;20128;-74
2022/09/18 07:08:12;;;;;;;0.22;0.10;;;10.60;99.90;;;;;;5024727;28;20118;-75
2022/09/18 07:10:38;;;;;;;0.08;0.00;;;10.70;99.90;;;;;;5042833;28;20052;-74
2022/09/18 07:13:04;;;;;;;1.58;0.30;;;10.70;99.90;;;;;;5042459;28;20045;-74
2022/09/18 07:15:30;;;;;;;1.65;0.20;;;10.70;99.90;;;;;;5043580;28;20380;-74
2022/09/18 07:17:57;;;;;;;0.00;0.00;;;10.70;99.90;;;;;;5008531;28;20040;-74
2022/09/18 07:20:24;;;;;;;0.98;0.10;;;10.70;99.90;;;;;;5039864;28;20040;-75
2022/09/18 07:22:55;;;;;;;0.15;0.00;;;10.70;99.90;;;;;;5023723;28;20051;-74
2022/09/18 07:25:21;;;;;;;0.40;0.20;;;10.70;99.90;;;;;;5023091;28;20767;-74
2022/09/18 07:27:47;;;;;;;0.98;0.30;;;10.80;99.90;;;;;;5022492;28;20112;-74
2022/09/18 07:30:13;;;;;;;2.08;0.30;;;10.80;99.90;;;;;;5042787;28;20455;-77
2022/09/18 07:32:38;;;;;;;1.10;0.38;;;10.80;99.90;;;;;;5042061;28;20094;-74
2022/09/18 07:35:04;;;;;;;3.25;0.28;;;10.80;99.90;;;;;;5041834;28;20418;-74
2022/09/18 07:37:32;;;;;;;0.15;0.10;;;10.80;99.90;;;;;;5023382;28;20063;-74
2022/09/18 07:39:58;;;;;;;1.20;0.10;;;10.80;99.90;;;;;;5023549;28;20029;-74
2022/09/18 07:42:23;;;;;;;1.33;0.47;;;10.80;99.90;;;;;;5041378;28;20538;-74
2022/09/18 07:44:49;;;;;;;0.70;0.20;;;10.80;99.90;;;;;;5040991;28;20037;-74
2022/09/18 07:47:14;;;;;;;0.13;0.10;;;10.80;99.90;;;;;;5043176;28;20120;-74
2022/09/18 07:49:41;;;;;;;0.95;0.32;;;10.90;99.90;;;;;;5040502;28;20119;-74
2022/09/18 07:52:07;;;;;;;2.85;0.20;;;10.90;99.90;;;;;;5039862;28;20048;-75
2022/09/18 07:54:32;;;;;;;0.38;0.10;;;10.90;99.90;;;;;;5020180;28;20048;-74
2022/09/18 07:56:58;;;;;;;3.60;0.35;;;10.90;99.90;;;;;;5043682;28;20530;-74
2022/09/18 07:59:24;;;;;;;0.52;0.10;;;10.90;99.90;;;;;;5042863;28;20047;-74
2022/09/18 08:01:51;;;;;;;0.52;0.00;;;10.90;99.90;;;;;;5040427;28;20041;-76
2022/09/18 08:04:17;;;;;;;0.45;0.10;;;10.80;99.90;;;;;;5038710;28;20041;-74
2022/09/18 08:06:42;;;;;;;0.00;0.00;;;10.90;99.90;;;;;;5041292;28;20051;-70
2022/09/18 08:09:08;;;;;;;3.13;0.30;;;10.80;99.90;;;;;;5041915;28;20045;-75
2022/09/18 08:11:33;;;;;;;0.35;0.10;;;10.80;99.90;;;;;;5045801;28;20496;-75
2022/09/18 08:13:59;;;;;;;1.65;0.20;;;10.80;99.90;;;;;;5021732;28;20044;-74
2022/09/18 08:16:25;;;;;;;2.20;0.35;;;10.80;99.90;;;;;;5041409;28;20558;-75
2022/09/18 08:18:50;;;;;;;1.63;0.08;;;10.70;99.90;;;;;;5042019;28;20623;-75
2022/09/18 08:21:17;;;;;;;0.17;0.10;;;10.80;99.90;;;;;;5040829;28;20201;-75
2022/09/18 08:23:43;;;;;;;1.45;0.20;;;10.80;99.90;;;;;;5040530;28;20086;-75
2022/09/18 08:26:08;;;;;;;0.50;0.15;;;10.80;99.90;;;;;;5041334;28;20398;-75
2022/09/18 08:28:34;;;;;;;0.30;0.20;;;10.80;99.90;;;;;;5022986;28;20037;-75
2022/09/18 08:30:59;;;;;;;0.17;0.03;;;10.80;99.90;;;;;;5039376;28;20041;-75
2022/09/18 08:33:25;;;;;;;0.10;0.10;;;10.80;99.90;;;;;;5040963;28;20033;-75
2022/09/18 08:35:51;;;;;;;1.90;0.13;;;10.80;99.90;;;;;;5022071;28;20339;-75
2022/09/18 08:38:16;;;;;;;0.35;0.30;;;10.80;99.90;;;;;;5025551;28;20053;-75
2022/09/18 08:40:53;;;;;;;0.70;0.15;;;10.80;99.90;;;;;;5022403;28;20394;-74
2022/09/18 08:43:33;;;;;;;1.58;0.10;;;10.80;99.90;;;;;;5042592;28;20494;-74
2022/09/18 08:46:09;;;;;;;0.10;0.10;;;10.90;99.90;;;;;;5039645;28;20434;-75
2022/09/18 08:48:43;;;;;;;0.57;0.20;;;10.80;99.90;;;;;;5041107;28;20068;-75
2022/09/18 08:51:21;;;;;;;0.47;0.17;;;10.90;99.90;;;;;;5019295;28;20040;-75
2022/09/18 08:53:52;;;;;;;0.20;0.10;;;10.90;99.90;;;;;;5043942;28;20829;-75
2022/09/18 08:56:22;;;;;;;0.45;0.15;;;10.90;99.90;;;;;;5042014;28;20044;-74
2022/09/18 08:59:04;;;;;;;0.68;0.10;;;10.90;99.90;;;;;;5043915;28;20124;-75
2022/09/18 09:01:54;;;;;;;0.50;0.10;;;11.00;99.90;;;;;;5044022;28;20456;-75
2022/09/18 09:04:27;;;;;;;1.00;0.30;;;10.90;99.90;;;;;;5026196;28;20063;-75
2022/09/18 09:07:14;;;;;;;0.00;0.00;;;10.90;99.90;;;;;;5043910;28;20433;-75
2022/09/18 09:09:57;;;;;;;0.60;0.40;;;10.90;99.90;;;;;;5041592;28;20187;-75
2022/09/18 09:12:25;;;;;;;1.67;0.68;;;10.90;99.90;;;;;;5038652;28;20178;-77
2022/09/18 09:15:02;;;;;;;0.30;0.10;;;10.90;99.90;;;;;;5035963;28;20091;-75
2022/09/18 09:17:28;;;;;;;0.05;0.05;;;11.00;99.90;;;;;;5038570;28;20429;-75
2022/09/18 09:20:05;;;;;;;0.20;0.10;;;10.90;99.90;;;;;;5038502;28;20048;-75
2022/09/18 09:22:44;;;;;;;0.55;0.10;;;11.00;99.90;;;;;;5022140;28;20074;-74
2022/09/18 09:25:21;;;;;;;0.10;0.00;;;11.00;99.90;;;;;;5016409;28;20037;-74
2022/09/18 09:27:57;;;;;;;0.40;0.20;;;11.00;99.90;;;;;;5033969;28;20163;-75
2022/09/18 09:30:22;;;;;;;0.63;0.30;;;11.00;99.90;;;;;;4983821;28;20078;-75
2022/09/18 09:32:51;;;;;;;0.30;0.20;;;11.00;99.90;;;;;;5014033;28;20040;-75
2022/09/18 09:35:25;;;;;;;0.50;0.13;;;11.00;99.90;;;;;;5035242;28;20477;-75
2022/09/18 09:37:52;;;;;;;0.65;0.17;;;11.00;99.90;;;;;;5036756;28;20491;-74
2022/09/18 09:40:31;;;;;;;1.52;0.10;;;11.00;99.90;;;;;;5036813;28;20120;-74
2022/09/18 09:43:10;;;;;;;1.27;0.40;;;11.10;99.90;;;;;;5031997;28;20145;-75
2022/09/18 09:45:45;;;;;;;0.10;0.10;;;11.10;99.90;;;;;;5035129;28;20049;-74
2022/09/18 09:48:35;;;;;;;0.73;0.20;;;11.10;99.90;;;;;;5019650;28;20048;-74
2022/09/18 09:51:28;;;;;;;3.03;0.30;;;11.10;99.90;;;;;;5039228;28;20037;-74
2022/09/18 09:53:57;;;;;;;0.28;0.10;;;11.10;99.90;;;;;;5036692;28;20041;-74
2022/09/18 09:56:35;;;;;;;0.22;0.17;;;11.10;99.90;;;;;;5030599;28;20536;-74
2022/09/18 09:59:15;;;;;;;0.17;0.10;;;11.10;99.90;;;;;;5031761;28;20413;-75
2022/09/18 10:02:05;;;;;;;1.10;0.28;;;11.10;99.90;;;;;;5033955;28;20037;-74
2022/09/18 10:05:21;;;;;;;0.43;0.20;;;11.10;99.90;;;;;;5034037;28;20041;-75
2022/09/18 10:08:23;;;;;;;1.55;0.30;;;11.10;99.90;;;;;;4955480;28;20099;-74
2022/09/18 10:10:55;;;;;;;0.35;0.20;;;11.10;99.90;;;;;;4956491;28;20055;-74
2022/09/18 10:13:28;;;;;;;0.05;0.00;;;11.10;99.90;;;;;;5015442;28;20081;-74
2022/09/18 10:16:11;;;;;;;0.55;0.10;;;11.10;99.90;;;;;;5036780;28;20106;-75
2022/09/18 10:18:43;;;;;;;0.17;0.13;;;11.20;99.90;;;;;;5043933;28;20494;-75
2022/09/18 10:21:13;;;;;;;0.70;0.45;;;11.10;99.90;;;;;;5042020;28;20045;-74
2022/09/18 10:23:41;;;;;;;1.15;0.28;;;11.10;99.90;;;;;;5039241;28;20041;-74
2022/09/18 10:26:24;;;;;;;0.65;0.10;;;11.10;99.90;;;;;;5036351;28;20036;-74
2022/09/18 10:28:50;;;;;;;0.55;0.10;;;11.20;99.90;;;;;;5037679;28;20033;-77
2022/09/18 10:31:16;;;;;;;0.82;0.32;;;11.10;99.90;;;;;;5038566;28;20044;-74
2022/09/18 10:33:44;;;;;;;0.15;0.10;;;11.10;99.90;;;;;;5003171;28;20052;-78
2022/09/18 10:36:34;;;;;;;0.35;0.10;;;11.10;99.90;;;;;;5038227;28;20044;-73
2022/09/18 10:39:14;;;;;;;1.65;0.20;;;11.10;99.90;;;;;;5037235;28;20037;-73
2022/09/18 10:41:41;;;;;;;0.80;0.40;;;11.20;99.90;;;;;;5038386;28;20039;-74
2022/09/18 10:44:13;;;;;;;0.00;0.00;;;11.30;99.90;;;;;;5039642;28;20083;-74
2022/09/18 10:47:02;;;;;;;0.60;0.22;;;11.30;99.90;;;;;;5040057;28;20037;-74
2022/09/18 10:49:39;;;;;;;5.80;0.10;;;11.30;99.90;;;;;;5035588;28;20402;-74
2022/09/18 10:52:14;;;;;;;0.80;0.20;;;11.40;99.90;;;;;;5040583;28;20048;-74
2022/09/18 10:54:40;;;;;;;1.25;0.20;;;11.40;99.90;;;;;;5043969;28;20045;-74
2022/09/18 10:57:28;;;;;;;2.65;0.30;;;11.40;99.90;;;;;;5043406;28;20055;-74
2022/09/18 10:59:54;;;;;;;0.13;0.00;;;11.40;99.90;;;;;;5041681;28;20041;-74
2022/09/18 11:02:23;;;;;;;0.25;0.20;;;11.50;99.90;;;;;;5042360;28;20462;-74
2022/09/18 11:04:49;;;;;;;0.10;0.10;;;11.50;99.90;;;;;;5043478;28;20608;-74
2022/09/18 11:07:16;;;;;;;0.52;0.10;;;11.50;99.90;;;;;;5037356;28;20083;-73
2022/09/18 11:09:43;;;;;;;0.00;0.00;;;11.50;99.90;;;;;;5042892;28;20123;-74
2022/09/18 11:12:27;;;;;;;0.75;0.30;;;11.50;99.90;;;;;;5042300;28;20040;-73
2022/09/18 11:15:06;;;;;;;3.08;0.30;;;11.60;99.90;;;;;;5007341;28;20040;-73
2022/09/18 11:17:37;;;;;;;3.63;0.32;;;11.60;99.90;;;;;;5040889;28;20582;-74
2022/09/18 11:20:05;;;;;;;0.70;0.15;;;11.60;99.90;;;;;;5041517;28;20048;-74
2022/09/18 11:22:42;;;;;;;2.05;0.40;;;11.60;99.90;;;;;;5043013;28;20103;-74
2022/09/18 11:25:19;;;;;;;0.50;0.00;;;11.60;99.90;;;;;;5043271;28;20409;-74
2022/09/18 11:27:48;;;;;;;0.65;0.30;;;11.60;99.90;;;;;;5042370;28;21149;-73
2022/09/18 11:30:19;;;;;;;0.25;0.10;;;11.70;99.90;;;;;;5040000;28;20033;-74
2022/09/18 11:32:46;;;;;;;1.42;0.47;;;11.80;99.90;;;;;;5020888;28;20092;-73
2022/09/18 11:35:15;;;;;;;1.00;0.38;;;11.80;99.90;;;;;;5021091;28;20528;-73
2022/09/18 11:38:06;;;;;;;1.38;0.38;;;11.80;99.90;;;;;;5020318;28;20049;-73
2022/09/18 11:40:41;;;;;;;0.43;0.10;;;11.90;99.90;;;;;;5028851;28;20055;-74
2022/09/18 11:43:15;;;;;;;7.72;0.40;;;11.90;99.90;;;;;;5038594;28;20437;-74
2022/09/18 11:46:05;;;;;;;2.90;0.28;;;11.90;99.90;;;;;;5042951;28;20037;-74
2022/09/18 11:48:42;;;;;;;0.80;0.28;;;12.00;99.90;;;;;;5042117;28;20036;-74
2022/09/18 11:51:25;;;;;;;0.47;0.32;;;12.00;99.90;;;;;;5034721;28;20049;-74
2022/09/18 11:53:57;;;;;;;1.02;0.20;;;12.00;99.90;;;;;;5033025;28;20033;-77
2022/09/18 11:56:48;;;;;;;0.60;0.25;;;12.00;99.90;;;;;;5038721;28;20502;-73
2022/09/18 11:59:36;;;;;;;0.55;0.20;;;12.10;99.90;;;;;;5045701;28;20037;-73
2022/09/18 12:02:21;;;;;;;1.45;0.40;;;12.20;99.90;;;;;;5038165;28;20078;-75
2022/09/18 12:04:51;;;;;;;0.25;0.15;;;12.10;99.90;;;;;;5037973;28;20588;-73
2022/09/18 12:07:32;;;;;;;0.70;0.38;;;12.20;99.90;;;;;;5039644;28;20678;-73
2022/09/18 12:10:26;;;;;;;1.13;0.20;;;12.20;99.90;;;;;;5046937;28;20272;-74
2022/09/18 12:13:15;;;;;;;1.67;0.20;;;12.20;99.90;;;;;;5031252;28;20040;-74
2022/09/18 12:15:45;;;;;;;0.40;0.38;;;12.30;99.90;;;;;;5002807;28;20371;-73
2022/09/18 12:18:20;;;;;;;1.08;0.20;;;12.30;99.90;;;;;;5049163;28;20040;-73
2022/09/18 12:20:50;;;;;;;0.17;0.15;;;12.30;99.90;;;;;;5048466;28;20040;-73
2022/09/18 12:23:24;;;;;;;2.40;0.30;;;12.40;99.90;;;;;;5030211;28;20194;-73
2022/09/18 12:26:27;;;;;;;0.88;0.38;;;12.40;99.90;;;;;;5047875;28;20376;-74
2022/09/18 12:29:05;;;;;;;1.35;0.40;;;12.40;99.90;;;;;;5011935;28;20326;-73
2022/09/18 12:31:50;;;;;;;1.65;0.20;;;12.40;99.90;;;;;;5036092;28;20491;-74
2022/09/18 12:34:45;;;;;;;2.80;0.50;;;12.50;99.90;;;;;;5049788;28;20040;-74
2022/09/18 12:37:28;;;;;;;0.57;0.22;;;12.50;99.90;;;;;;5030408;28;20538;-73
2022/09/18 12:40:09;;;;;;;0.77;0.25;;;12.50;99.90;;;;;;5032318;28;20041;-74
2022/09/18 12:42:53;;;;;;;2.30;0.17;;;12.50;99.90;;;;;;5030607;28;20128;-74
2022/09/18 12:45:46;;;;;;;0.52;0.10;;;12.60;99.90;;;;;;5030724;28;20091;-74
2022/09/18 12:48:37;;;;;;;4.70;0.65;;;12.60;99.90;;;;;;5048620;28;20063;-74
2022/09/18 12:51:34;;;;;;;1.58;0.30;;;12.60;99.90;;;;;;5047782;28;20426;-74
2022/09/18 12:54:21;;;;;;;2.55;0.20;;;12.60;99.90;;;;;;5049195;28;20495;-73
2022/09/18 12:57:12;;;;;;;0.77;0.40;;;12.70;99.90;;;;;;5049260;28;20045;-74
2022/09/18 13:00:02;;;;;;;4.22;0.30;;;12.70;99.90;;;;;;5031237;28;20533;-74
2022/09/18 13:02:36;;;;;;;4.32;0.40;;;12.60;99.90;;;;;;5046484;28;20036;-74
2022/09/18 13:05:20;;;;;;;1.35;0.40;;;12.60;99.90;;;;;;5046682;28;20037;-74
2022/09/18 13:08:16;;;;;;;2.05;0.38;;;12.60;99.90;;;;;;5048156;28;20045;-73
2022/09/18 13:10:44;;;;;;;1.35;0.10;;;12.70;99.90;;;;;;5030947;28;20045;-73
2022/09/18 13:13:31;;;;;;;1.55;0.30;;;12.80;99.90;;;;;;5049105;28;20087;-74